createdAt,value
2022-09-15T00:02:32.819Z,97628.06
2022-09-15T00:07:36.746Z,97635.72
2022-09-15T00:12:40.109Z,97633.03
2022-09-15T00:17:50.693Z,97631.59
2022-09-15T00:22:54.049Z,97618.09
2022-09-15T00:27:58.119Z,97620.31
2022-09-15T00:33:03.126Z,97623.75
2022-09-15T00:38:07.647Z,97618.53
2022-09-15T00:43:12.419Z,97619.66
2022-09-15T00:48:21.178Z,97619.16
2022-09-15T00:53:26.305Z,97618.25
2022-09-15T00:58:37.442Z,97613.72
2022-09-15T01:03:42.304Z,97610.97
2022-09-15T01:08:50.116Z,97610.13
2022-09-15T01:13:53.562Z,97610.16
2022-09-15T01:19:15.689Z,97612.88
2022-09-15T01:24:42.730Z,97612.56
2022-09-15T01:30:07.741Z,97605.91
2022-09-15T01:35:22.763Z,97605.47
2022-09-15T01:40:30.541Z,97607.84
2022-09-15T01:45:37.825Z,97604.25
2022-09-15T01:50:46.533Z,97599.28
2022-09-15T01:55:56.030Z,97595.59
2022-09-15T02:01:08.060Z,97598.69
2022-09-15T02:06:17.017Z,97596.06
2022-09-15T02:11:28.253Z,97597.81
2022-09-15T02:16:37.292Z,97599.25
2022-09-15T02:21:54.128Z,97592.06
2022-09-15T02:26:59.817Z,97593.75
2022-09-15T02:32:07.554Z,97584.78
2022-09-15T02:37:13.613Z,97591.47
2022-09-15T02:42:24.698Z,97596.97
2022-09-15T02:47:30.676Z,97598.69
2022-09-15T02:52:34.096Z,97591.06
2022-09-15T02:57:38.350Z,97601.16
2022-09-15T03:02:45.577Z,97606.13
2022-09-15T03:07:49.343Z,97608.66
2022-09-15T03:12:54.365Z,97603.56
2022-09-15T03:17:59.852Z,97606.88
2022-09-15T03:23:03.478Z,97603.56
2022-09-15T03:28:07.538Z,97602.75
2022-09-15T03:33:12.224Z,97603.38
2022-09-15T03:38:16.280Z,97598.94
2022-09-15T03:43:19.995Z,97590.72
2022-09-15T03:48:26.142Z,97593.00
2022-09-15T03:53:29.763Z,97581.25
2022-09-15T03:58:33.761Z,97586.47
2022-09-15T04:03:44.101Z,97593.13
2022-09-15T04:08:50.003Z,97595.69
2022-09-15T04:13:54.191Z,97593.66
2022-09-15T04:18:59.762Z,97592.75
2022-09-15T04:24:04.827Z,97596.78
2022-09-15T04:29:15.026Z,97581.91
2022-09-15T04:34:19.881Z,97588.06
2022-09-15T04:39:23.945Z,97584.59
2022-09-15T04:44:27.282Z,97588.63
2022-09-15T04:49:32.801Z,97588.91
2022-09-15T04:54:36.285Z,97590.03
2022-09-15T04:59:40.620Z,97598.28
2022-09-15T05:04:45.820Z,97589.47
2022-09-15T05:09:49.955Z,97589.47
2022-09-15T05:14:53.309Z,97597.44
2022-09-15T05:19:58.904Z,97593.94
2022-09-15T05:25:02.255Z,97601.56
2022-09-15T05:30:36.034Z,97597.25
2022-09-15T05:35:35.128Z,97587.38
2022-09-15T05:40:39.214Z,97590.00
2022-09-15T05:45:43.589Z,97595.84
2022-09-15T05:50:52.900Z,97589.94
2022-09-15T05:55:58.209Z,97585.44
2022-09-15T06:01:07.832Z,97592.06
2022-09-15T06:06:14.170Z,97597.16
2022-09-15T06:11:19.924Z,97607.00
2022-09-15T06:16:25.454Z,97602.81
2022-09-15T06:21:33.277Z,97589.38
2022-09-15T06:26:38.091Z,97604.47
2022-09-15T06:31:42.509Z,97607.66
2022-09-15T06:36:48.079Z,97619.75
2022-09-15T06:42:02.152Z,97612.97
2022-09-15T06:47:08.081Z,97620.53
2022-09-15T06:52:13.591Z,97614.72
2022-09-15T06:57:17.657Z,97624.84
2022-09-15T07:02:21.052Z,97625.59
2022-09-15T07:07:26.220Z,97629.00
2022-09-15T07:12:29.621Z,97630.63
2022-09-15T07:17:33.991Z,97639.50
2022-09-15T07:22:38.734Z,97639.16
2022-09-15T07:27:42.935Z,97634.28
2022-09-15T07:32:46.328Z,97635.00
2022-09-15T07:37:52.755Z,97635.16
2022-09-15T07:42:56.121Z,97639.88
2022-09-15T07:48:00.271Z,97642.56
2022-09-15T07:53:04.984Z,97643.06
2022-09-15T07:58:09.115Z,97647.34
2022-09-15T08:03:12.605Z,97646.31
2022-09-15T08:08:17.315Z,97648.25
2022-09-15T08:13:20.388Z,97649.81
2022-09-15T08:18:24.505Z,97636.00
2022-09-15T08:23:29.368Z,97643.44
2022-09-15T08:28:33.527Z,97643.91
2022-09-15T08:33:38.957Z,97648.34
2022-09-15T08:38:47.848Z,97653.56
2022-09-15T08:43:56.144Z,97656.91
2022-09-15T08:49:07.265Z,97644.44
2022-09-15T08:54:19.953Z,97650.28
2022-09-15T08:59:24.258Z,97646.13
2022-09-15T09:05:08.528Z,97657.66
2022-09-15T09:10:19.411Z,97650.19
2022-09-15T09:15:34.166Z,97666.38
2022-09-15T09:20:42.871Z,97663.53
2022-09-15T09:25:49.932Z,97663.84
2022-09-15T09:30:55.004Z,97669.69
2022-09-15T09:36:03.583Z,97659.38
2022-09-15T09:41:14.489Z,97679.41
2022-09-15T09:46:21.123Z,97676.06
2022-09-15T09:51:34.372Z,97673.53
2022-09-15T09:56:41.184Z,97682.22
2022-09-15T10:02:18.628Z,97684.84
2022-09-15T10:07:24.785Z,97680.59
2022-09-15T10:12:33.309Z,97682.31
2022-09-15T10:17:44.444Z,97669.91
2022-09-15T10:22:48.039Z,97666.31
2022-09-15T10:28:13.170Z,97672.81
2022-09-15T10:33:23.875Z,97681.31
2022-09-15T10:38:34.928Z,97683.00
2022-09-15T10:43:48.172Z,97688.69
2022-09-15T10:49:06.826Z,97692.13
2022-09-15T10:54:34.308Z,97689.69
2022-09-15T10:59:48.128Z,97696.72
2022-09-15T11:05:20.527Z,97719.28
2022-09-15T11:10:36.289Z,97711.69
2022-09-15T11:15:55.555Z,97715.59
2022-09-15T11:21:25.177Z,97715.38
2022-09-15T11:26:35.950Z,97724.84
2022-09-15T11:31:44.698Z,97723.69
2022-09-15T11:36:54.159Z,97718.81
2022-09-15T11:42:05.536Z,97727.16
2022-09-15T11:47:21.779Z,97718.28
2022-09-15T11:52:45.982Z,97726.94
2022-09-15T11:57:56.471Z,97717.44
2022-09-15T12:03:17.641Z,97719.59
2022-09-15T12:08:26.196Z,97725.66
2022-09-15T12:13:31.408Z,97716.84
2022-09-15T12:18:46.015Z,97720.72
2022-09-15T12:23:57.996Z,97718.31
2022-09-15T12:29:03.242Z,97714.13
2022-09-15T12:34:37.278Z,97716.78
2022-09-15T12:39:44.538Z,97714.88
2022-09-15T12:44:52.350Z,97715.63
2022-09-15T12:50:01.914Z,97715.41
2022-09-15T12:55:07.622Z,97713.66
2022-09-15T13:00:49.966Z,97716.09
2022-09-15T13:06:22.423Z,97713.53
2022-09-15T13:11:39.067Z,97719.03
2022-09-15T13:16:52.602Z,97725.66
2022-09-15T13:22:05.752Z,97722.44
2022-09-15T13:27:10.888Z,97727.03
2022-09-15T13:32:26.836Z,97734.03
2022-09-15T13:38:16.912Z,97741.03
2022-09-15T13:43:45.488Z,97745.47
2022-09-15T13:49:09.179Z,97752.97
2022-09-15T13:54:19.226Z,97747.97
2022-09-15T13:59:27.883Z,97749.47
2022-09-15T14:04:32.750Z,97749.22
2022-09-15T14:09:48.427Z,97754.72
2022-09-15T14:14:55.706Z,97747.72
2022-09-15T14:20:01.644Z,97761.09
2022-09-15T14:25:16.729Z,97768.47
2022-09-15T14:30:24.620Z,97756.50
2022-09-15T14:35:32.226Z,97756.34
2022-09-15T14:40:40.127Z,97756.13
2022-09-15T14:45:57.360Z,97765.13
2022-09-15T14:51:11.062Z,97765.00
2022-09-15T14:56:21.522Z,97765.28
2022-09-15T15:01:33.774Z,97763.78
2022-09-15T15:06:43.473Z,97752.81
2022-09-15T15:11:52.549Z,97761.78
2022-09-15T15:17:01.087Z,97765.84
2022-09-15T15:22:18.445Z,97761.72
2022-09-15T15:27:44.607Z,97756.94
2022-09-15T15:32:48.399Z,97766.53
2022-09-15T15:38:03.599Z,97774.16
2022-09-15T15:43:19.732Z,97773.03
2022-09-15T15:48:24.044Z,97774.13
2022-09-15T15:53:28.294Z,97766.25
2022-09-15T15:58:33.878Z,97770.41
2022-09-15T16:03:37.473Z,97773.81
2022-09-15T16:08:44.162Z,97759.09
2022-09-15T16:13:49.320Z,97769.78
2022-09-15T16:18:53.726Z,97773.75
2022-09-15T16:23:57.281Z,97770.78
2022-09-15T16:29:03.081Z,97775.38
2022-09-15T16:34:07.262Z,97771.44
2022-09-15T16:39:11.508Z,97773.50
2022-09-15T16:44:20.776Z,97775.72
2022-09-15T16:49:25.039Z,97776.06
2022-09-15T16:54:28.711Z,97769.41
2022-09-15T16:59:37.329Z,97761.91
2022-09-15T17:04:40.691Z,97773.66
2022-09-15T17:09:45.160Z,97773.34
2022-09-15T17:14:50.146Z,97786.63
2022-09-15T17:19:54.268Z,97779.44
2022-09-15T17:24:57.713Z,97788.25
2022-09-15T17:30:03.438Z,97783.09
2022-09-15T17:35:16.707Z,97781.63
2022-09-15T17:40:22.445Z,97785.19
2022-09-15T17:45:31.687Z,97786.72
2022-09-15T17:50:38.879Z,97788.63
2022-09-15T17:55:43.933Z,97778.34
2022-09-15T18:00:50.952Z,97779.16
2022-09-15T18:05:56.380Z,97770.75
2022-09-15T18:11:01.662Z,97776.78
2022-09-15T18:16:10.161Z,97765.59
2022-09-15T18:21:27.691Z,97776.13
2022-09-15T18:26:32.267Z,97766.97
2022-09-15T18:31:37.924Z,97763.78
2022-09-15T18:36:42.066Z,97771.78
2022-09-15T18:41:46.377Z,97777.19
2022-09-15T18:46:52.115Z,97776.41
2022-09-15T18:51:55.556Z,97775.75
2022-09-15T18:56:59.853Z,97764.78
2022-09-15T19:02:06.080Z,97763.94
2022-09-15T19:07:09.895Z,97767.66
2022-09-15T19:12:14.080Z,97760.03
2022-09-15T19:17:19.742Z,97764.47
2022-09-15T19:22:23.173Z,97764.53
2022-09-15T19:27:27.511Z,97755.19
2022-09-15T19:32:34.331Z,97769.94
2022-09-15T19:37:40.134Z,97763.25
2022-09-15T19:42:45.114Z,97745.41
2022-09-15T19:47:50.689Z,97760.75
2022-09-15T19:52:58.829Z,97751.41
2022-09-15T19:58:03.974Z,97759.31
2022-09-15T20:03:08.743Z,97757.75
2022-09-15T20:08:12.146Z,97750.22
2022-09-15T20:13:16.889Z,97764.84
2022-09-15T20:18:22.352Z,97759.81
2022-09-15T20:23:25.718Z,97755.59
2022-09-15T20:28:30.372Z,97752.88
2022-09-15T20:33:36.566Z,97752.19
2022-09-15T20:38:41.646Z,97736.88
2022-09-15T20:43:45.561Z,97749.53
2022-09-15T20:48:52.657Z,97744.16
2022-09-15T20:53:57.520Z,97749.19
2022-09-15T20:59:02.313Z,97756.09
2022-09-15T21:04:08.137Z,97743.94
2022-09-15T21:09:11.526Z,97747.53
2022-09-15T21:14:15.060Z,97750.22
2022-09-15T21:19:20.542Z,97739.13
2022-09-15T21:24:24.043Z,97734.97
2022-09-15T21:29:28.595Z,97734.25
2022-09-15T21:34:33.370Z,97731.00
2022-09-15T21:39:37.555Z,97731.25
2022-09-15T21:44:40.866Z,97730.59
2022-09-15T21:49:46.372Z,97722.91
2022-09-15T21:54:49.696Z,97726.38
2022-09-15T21:59:53.882Z,97727.38
2022-09-15T22:04:59.786Z,97720.53
2022-09-15T22:10:03.840Z,97719.91
2022-09-15T22:15:08.319Z,97723.41
2022-09-15T22:20:13.847Z,97719.13
2022-09-15T22:25:21.679Z,97709.69
2022-09-15T22:30:26.470Z,97715.84
2022-09-15T22:35:32.287Z,97718.47
2022-09-15T22:40:36.403Z,97709.03
2022-09-15T22:45:40.613Z,97709.19
2022-09-15T22:50:47.299Z,97716.97
2022-09-15T22:55:52.449Z,97718.69
2022-09-15T23:00:56.604Z,97709.28
2022-09-15T23:06:02.867Z,97710.13
2022-09-15T23:11:08.960Z,97713.63
2022-09-15T23:16:13.929Z,97720.66
2022-09-15T23:21:19.591Z,97706.84
2022-09-15T23:26:25.439Z,97705.19
2022-09-15T23:31:30.040Z,97696.63
2022-09-15T23:36:35.837Z,97692.34
2022-09-15T23:41:40.144Z,97690.69
2022-09-15T23:46:44.245Z,97686.50
2022-09-15T23:51:50.676Z,97680.56
2022-09-15T23:56:55.269Z,97672.94
